createdAt,value
2023-02-25T00:02:04.420Z,61.77
2023-02-25T00:04:33.225Z,60.62
2023-02-25T00:07:02.152Z,60.15
2023-02-25T00:09:31.330Z,59.63
2023-02-25T00:12:00.155Z,61.28
2023-02-25T00:14:29.053Z,63.18
2023-02-25T00:16:57.734Z,62.75
2023-02-25T00:19:27.839Z,61.73
2023-02-25T00:21:56.770Z,60.75
2023-02-25T00:24:25.335Z,60.25
2023-02-25T00:26:53.907Z,59.52
2023-02-25T00:29:22.459Z,59.76
2023-02-25T00:31:51.087Z,62.14
2023-02-25T00:34:19.992Z,63.51
2023-02-25T00:36:50.477Z,62.87
2023-02-25T00:39:19.306Z,62.32
2023-02-25T00:41:47.756Z,61.04
2023-02-25T00:44:16.345Z,60.56
2023-02-25T00:46:44.875Z,59.92
2023-02-25T00:49:23.921Z,59.07
2023-02-25T00:52:00.764Z,60.41
2023-02-25T00:54:29.839Z,62.57
2023-02-25T00:56:58.382Z,62.96
2023-02-25T00:59:26.900Z,62.34
2023-02-25T01:01:55.384Z,61.42
2023-02-25T01:04:24.070Z,59.89
2023-02-25T01:06:54.515Z,59.25
2023-02-25T01:09:23.072Z,60.18
2023-02-25T01:11:52.458Z,61.84
2023-02-25T01:14:24.393Z,63.82
2023-02-25T01:16:56.384Z,63.74
2023-02-25T01:19:26.505Z,62.56
2023-02-25T01:21:59.624Z,61.43
2023-02-25T01:24:33.408Z,60.77
2023-02-25T01:27:03.614Z,59.48
2023-02-25T01:29:39.639Z,59.18
2023-02-25T01:32:14.510Z,60.67
2023-02-25T01:34:43.208Z,63.12
2023-02-25T01:37:11.741Z,63.52
2023-02-25T01:39:43.239Z,62.28
2023-02-25T01:42:15.987Z,61.36
2023-02-25T01:45:09.435Z,60.36
2023-02-25T01:47:40.327Z,59.48
2023-02-25T01:50:10.435Z,59.70
2023-02-25T01:52:41.159Z,61.71
2023-02-25T01:55:11.295Z,63.45
2023-02-25T01:57:39.947Z,63.33
2023-02-25T02:00:18.480Z,62.08
2023-02-25T02:02:49.976Z,61.26
2023-02-25T02:05:19.022Z,60.58
2023-02-25T02:07:48.570Z,59.84
2023-02-25T02:10:17.960Z,59.26
2023-02-25T02:12:48.611Z,60.60
2023-02-25T02:15:17.140Z,62.97
2023-02-25T02:18:01.953Z,63.60
2023-02-25T02:20:50.647Z,62.47
2023-02-25T02:23:40.378Z,60.93
2023-02-25T02:26:38.349Z,60.11
2023-02-25T02:29:18.817Z,59.48
2023-02-25T02:32:05.691Z,58.79
2023-02-25T02:35:04.392Z,61.33
2023-02-25T02:37:41.066Z,62.97
2023-02-25T02:40:19.939Z,62.47
2023-02-25T02:43:25.307Z,61.04
2023-02-25T02:46:21.653Z,60.56
2023-02-25T02:49:01.531Z,59.96
2023-02-25T02:51:52.166Z,59.22
2023-02-25T02:54:22.305Z,60.80
2023-02-25T02:56:54.442Z,63.40
2023-02-25T02:59:28.734Z,63.85
2023-02-25T03:02:00.894Z,62.85
2023-02-25T03:04:33.788Z,61.95
2023-02-25T03:07:07.659Z,60.43
2023-02-25T03:09:41.546Z,60.11
2023-02-25T03:12:10.569Z,59.46
2023-02-25T03:14:39.158Z,60.48
2023-02-25T03:17:20.711Z,62.99
2023-02-25T03:20:04.193Z,64.02
2023-02-25T03:22:37.381Z,62.96
2023-02-25T03:25:47.996Z,62.01
2023-02-25T03:28:30.998Z,60.68
2023-02-25T03:31:21.820Z,60.42
2023-02-25T03:34:14.634Z,60.13
2023-02-25T03:36:48.168Z,59.89
2023-02-25T03:39:21.296Z,59.58
2023-02-25T03:41:54.041Z,60.14
2023-02-25T03:44:45.766Z,62.68
2023-02-25T03:47:16.617Z,64.02
2023-02-25T03:50:06.836Z,63.03
2023-02-25T03:52:36.425Z,61.71
2023-02-25T03:55:10.001Z,60.70
2023-02-25T03:57:42.191Z,60.14
2023-02-25T04:00:23.052Z,59.90
2023-02-25T04:02:52.077Z,59.64
2023-02-25T04:05:23.211Z,59.45
2023-02-25T04:07:51.809Z,61.99
2023-02-25T04:10:21.194Z,64.02
2023-02-25T04:12:52.466Z,63.15
2023-02-25T04:15:22.463Z,62.39
2023-02-25T04:17:50.965Z,62.07
2023-02-25T04:20:20.119Z,61.09
2023-02-25T04:22:48.849Z,60.47
2023-02-25T04:25:17.367Z,60.08
2023-02-25T04:27:46.336Z,60.06
2023-02-25T04:30:15.710Z,59.45
2023-02-25T04:32:44.489Z,60.04
2023-02-25T04:35:13.802Z,62.54
2023-02-25T04:37:43.096Z,64.32
2023-02-25T04:40:19.366Z,63.79
2023-02-25T04:42:48.646Z,62.69
2023-02-25T04:45:17.530Z,62.14
2023-02-25T04:47:45.944Z,61.48
2023-02-25T04:50:14.458Z,60.99
2023-02-25T04:52:42.963Z,60.86
2023-02-25T04:55:11.591Z,60.55
2023-02-25T04:57:42.998Z,60.40
2023-02-25T05:00:30.253Z,59.94
2023-02-25T05:02:59.159Z,59.67
2023-02-25T05:05:28.075Z,60.86
2023-02-25T05:07:56.501Z,63.17
2023-02-25T05:10:24.937Z,63.91
2023-02-25T05:12:53.572Z,63.27
2023-02-25T05:15:22.627Z,62.51
2023-02-25T05:17:51.381Z,61.54
2023-02-25T05:20:20.046Z,60.97
2023-02-25T05:22:48.559Z,60.42
2023-02-25T05:25:17.148Z,60.40
2023-02-25T05:27:45.643Z,60.14
2023-02-25T05:30:14.928Z,59.57
2023-02-25T05:32:43.473Z,61.10
2023-02-25T05:35:12.364Z,63.86
2023-02-25T05:37:41.153Z,63.35
2023-02-25T05:40:14.375Z,62.90
2023-02-25T05:42:42.908Z,61.87
2023-02-25T05:45:11.628Z,61.27
2023-02-25T05:47:40.391Z,60.77
2023-02-25T05:50:09.898Z,60.41
2023-02-25T05:52:38.503Z,60.20
2023-02-25T05:55:09.571Z,59.71
2023-02-25T05:57:38.296Z,59.16
2023-02-25T06:00:15.135Z,60.13
2023-02-25T06:02:44.837Z,63.14
2023-02-25T06:05:14.283Z,63.62
2023-02-25T06:07:42.699Z,63.08
2023-02-25T06:10:12.072Z,62.36
2023-02-25T06:12:40.550Z,61.38
2023-02-25T06:15:09.506Z,60.86
2023-02-25T06:17:37.998Z,60.66
2023-02-25T06:20:07.932Z,60.48
2023-02-25T06:22:36.888Z,59.98
2023-02-25T06:25:06.106Z,59.85
2023-02-25T06:27:34.633Z,59.50
2023-02-25T06:30:03.784Z,61.61
2023-02-25T06:32:32.404Z,63.69
2023-02-25T06:35:01.555Z,63.47
2023-02-25T06:37:30.083Z,62.83
2023-02-25T06:39:58.948Z,61.91
2023-02-25T06:42:27.550Z,61.39
2023-02-25T06:44:55.993Z,60.91
2023-02-25T06:47:24.575Z,60.46
2023-02-25T06:49:53.035Z,60.08
2023-02-25T06:52:21.586Z,59.93
2023-02-25T06:54:51.378Z,59.42
2023-02-25T06:57:19.932Z,61.29
2023-02-25T06:59:48.440Z,62.79
2023-02-25T07:02:16.928Z,63.02
2023-02-25T07:04:45.555Z,62.13
2023-02-25T07:07:14.069Z,61.31
2023-02-25T07:09:42.541Z,61.16
2023-02-25T07:12:11.027Z,60.97
2023-02-25T07:14:39.449Z,60.26
2023-02-25T07:17:08.234Z,60.03
2023-02-25T07:19:36.760Z,59.52
2023-02-25T07:22:05.700Z,60.08
2023-02-25T07:42:33.215Z,60.94
2023-02-25T07:45:23.803Z,60.42
2023-02-25T07:59:51.856Z,62.56
2023-02-25T08:11:55.518Z,61.08
2023-02-25T08:14:24.096Z,60.42
2023-02-25T08:16:56.635Z,59.79
2023-02-25T08:19:25.292Z,59.26
2023-02-25T08:21:57.231Z,60.41
2023-02-25T08:24:32.702Z,63.02
2023-02-25T08:27:01.441Z,63.86
2023-02-25T08:29:30.755Z,63.45
2023-02-25T08:45:56.978Z,59.48
2023-02-25T08:48:28.915Z,60.90
2023-02-25T08:51:09.763Z,63.28
2023-02-25T08:53:40.963Z,63.90
2023-02-25T08:56:12.994Z,63.20
2023-02-25T08:59:05.199Z,62.52
2023-02-25T09:02:07.626Z,61.91
2023-02-25T09:05:59.726Z,60.72
2023-02-25T09:09:31.004Z,59.96
2023-02-25T09:12:06.517Z,59.54
2023-02-25T09:15:00.646Z,59.28
2023-02-25T09:18:26.218Z,60.48
2023-02-25T09:21:44.950Z,63.32
2023-02-25T09:24:18.784Z,62.90
2023-02-25T09:27:44.086Z,61.53
2023-02-25T09:31:00.587Z,60.86
2023-02-25T09:33:44.093Z,60.17
2023-02-25T09:36:58.521Z,59.87
2023-02-25T09:39:48.447Z,59.18
2023-02-25T09:43:17.460Z,60.31
2023-02-25T09:46:40.216Z,63.22
2023-02-25T09:50:33.845Z,63.42
2023-02-25T09:54:37.857Z,61.33
2023-02-25T09:57:42.739Z,60.26
2023-02-25T10:01:27.699Z,59.52
2023-02-25T10:04:31.873Z,60.71
2023-02-25T10:07:45.536Z,63.05
2023-02-25T10:11:13.010Z,63.02
2023-02-25T10:14:17.795Z,62.07
2023-02-25T10:17:45.251Z,60.57
2023-02-25T10:21:26.173Z,60.02
2023-02-25T10:25:43.058Z,59.42
2023-02-25T10:29:57.453Z,62.65
2023-02-25T10:33:55.258Z,63.02
2023-02-25T10:37:05.009Z,61.64
2023-02-25T10:39:55.608Z,60.18
2023-02-25T10:43:20.409Z,60.21
2023-02-25T10:46:44.019Z,59.55
2023-02-25T10:49:32.707Z,60.67
2023-02-25T10:52:46.272Z,63.26
2023-02-25T10:55:56.009Z,63.07
2023-02-25T10:58:43.641Z,61.69
2023-02-25T11:01:37.262Z,60.28
2023-02-25T11:05:06.659Z,59.64
2023-02-25T11:08:28.164Z,61.52
2023-02-25T11:11:10.662Z,63.55
2023-02-25T11:13:42.500Z,62.82
2023-02-25T11:16:15.582Z,61.86
2023-02-25T11:18:58.466Z,60.96
2023-02-25T11:21:39.698Z,60.40
2023-02-25T11:24:23.957Z,59.57
2023-02-25T11:26:54.212Z,61.10
2023-02-25T11:29:33.261Z,62.22
2023-02-25T11:32:13.858Z,62.93
2023-02-25T11:34:58.388Z,62.17
2023-02-25T11:37:45.842Z,60.04
2023-02-25T11:40:42.340Z,58.94
2023-02-25T11:43:34.825Z,61.04
2023-02-25T11:46:29.680Z,62.88
2023-02-25T11:49:19.470Z,61.05
2023-02-25T11:52:15.099Z,60.28
2023-02-25T11:55:13.171Z,59.55
2023-02-25T11:57:55.074Z,61.31
2023-02-25T12:00:30.447Z,63.29
2023-02-25T12:03:17.994Z,63.42
2023-02-25T12:06:29.955Z,61.34
2023-02-25T12:09:14.678Z,60.67
2023-02-25T12:11:59.709Z,59.64
2023-02-25T12:14:31.732Z,60.21
2023-02-25T12:17:28.884Z,62.61
2023-02-25T12:20:07.093Z,63.38
2023-02-25T12:22:40.060Z,62.09
2023-02-25T12:25:43.888Z,60.80
2023-02-25T12:28:24.580Z,60.18
2023-02-25T12:31:07.321Z,59.49
2023-02-25T12:34:04.228Z,59.44
2023-02-25T12:36:53.089Z,61.59
2023-02-25T12:39:39.669Z,63.26
2023-02-25T12:42:20.035Z,62.27
2023-02-25T12:45:44.903Z,61.28
2023-02-25T12:48:40.404Z,60.07
2023-02-25T12:51:56.701Z,60.04
2023-02-25T12:55:07.328Z,62.79
2023-02-25T12:58:30.151Z,62.75
2023-02-25T13:01:24.643Z,61.87
2023-02-25T13:03:58.200Z,60.27
2023-02-25T13:06:53.529Z,59.50
2023-02-25T13:09:23.458Z,59.48
2023-02-25T13:12:12.245Z,61.70
2023-02-25T13:15:21.109Z,63.15
2023-02-25T13:18:08.448Z,62.11
2023-02-25T13:20:43.960Z,61.30
2023-02-25T13:23:51.171Z,60.82
2023-02-25T13:26:47.922Z,59.93
2023-02-25T13:29:25.912Z,59.82
2023-02-25T13:32:14.619Z,59.13
2023-02-25T13:35:09.961Z,60.02
2023-02-25T13:37:47.430Z,63.15
2023-02-25T13:40:27.203Z,64.17
2023-02-25T13:43:21.324Z,62.86
2023-02-25T13:46:03.553Z,61.65
2023-02-25T13:49:05.443Z,61.37
2023-02-25T13:51:51.253Z,60.59
2023-02-25T13:54:48.459Z,59.65
2023-02-25T13:57:43.614Z,60.77
2023-02-25T14:00:33.019Z,63.24
2023-02-25T14:03:41.532Z,63.26
2023-02-25T14:06:36.032Z,61.54
2023-02-25T14:09:38.959Z,60.87
2023-02-25T14:12:16.881Z,59.23
2023-02-25T14:15:08.857Z,61.09
2023-02-25T14:18:21.940Z,63.35
2023-02-25T14:21:24.060Z,62.38
2023-02-25T14:24:01.693Z,60.78
2023-02-25T14:26:42.107Z,60.11
2023-02-25T14:29:44.262Z,58.67
2023-02-25T14:32:44.284Z,60.71
2023-02-25T14:35:28.911Z,62.90
2023-02-25T14:38:00.744Z,62.80
2023-02-25T14:40:39.526Z,61.41
2023-02-25T14:43:27.264Z,60.27
2023-02-25T14:46:04.354Z,59.72
2023-02-25T14:48:56.523Z,59.13
2023-02-25T14:51:50.213Z,61.10
2023-02-25T14:54:44.321Z,62.97
2023-02-25T14:57:45.651Z,62.38
2023-02-25T15:00:48.764Z,60.75
2023-02-25T15:03:31.407Z,59.81
2023-02-25T15:06:25.534Z,59.50
2023-02-25T15:09:32.165Z,59.84
2023-02-25T15:12:17.782Z,62.22
2023-02-25T15:15:08.863Z,63.58
2023-02-25T15:18:10.981Z,62.66
2023-02-25T15:20:44.336Z,61.39
2023-02-25T15:23:20.964Z,60.87
2023-02-25T15:26:13.001Z,60.50
2023-02-25T15:28:46.455Z,60.01
2023-02-25T15:31:30.521Z,59.26
2023-02-25T15:34:21.846Z,59.80
2023-02-25T15:37:27.800Z,62.07
2023-02-25T15:40:18.313Z,64.32
2023-02-25T15:42:59.529Z,63.29
2023-02-25T15:45:28.437Z,62.20
2023-02-25T15:48:21.955Z,61.50
2023-02-25T15:50:51.929Z,61.14
2023-02-25T15:53:26.796Z,60.28
2023-02-25T15:56:05.013Z,59.87
2023-02-25T15:58:33.724Z,58.98
2023-02-25T16:01:05.566Z,60.13
2023-02-25T16:03:35.076Z,62.43
2023-02-25T16:06:30.218Z,63.54
2023-02-25T16:09:14.457Z,62.80
2023-02-25T16:11:55.025Z,61.57
2023-02-25T16:14:30.760Z,60.86
2023-02-25T16:17:04.808Z,60.47
2023-02-25T16:19:39.878Z,60.16
2023-02-25T16:22:22.180Z,59.88
2023-02-25T16:24:58.750Z,59.00
2023-02-25T16:27:52.823Z,60.55
2023-02-25T16:30:45.028Z,63.18
2023-02-25T16:33:28.636Z,62.87
2023-02-25T16:36:22.770Z,61.51
2023-02-25T16:39:07.617Z,60.72
2023-02-25T16:41:38.875Z,59.94
2023-02-25T16:44:08.871Z,59.55
2023-02-25T16:46:40.528Z,59.17
2023-02-25T16:49:27.670Z,60.91
2023-02-25T16:51:57.285Z,63.36
2023-02-25T16:54:40.390Z,63.06
2023-02-25T16:57:20.861Z,61.76
2023-02-25T16:59:51.209Z,60.49
2023-02-25T17:02:25.853Z,59.28
2023-02-25T17:04:56.284Z,59.29
2023-02-25T17:07:28.303Z,61.25
2023-02-25T17:10:03.662Z,63.61
2023-02-25T17:12:41.217Z,63.49
2023-02-25T17:15:20.229Z,62.26
2023-02-25T17:18:02.627Z,61.32
2023-02-25T17:20:31.359Z,60.19
2023-02-25T17:23:06.808Z,59.76
2023-02-25T17:25:40.172Z,58.88
2023-02-25T17:28:18.511Z,60.53
2023-02-25T17:30:47.648Z,62.36
2023-02-25T17:33:26.718Z,63.40
2023-02-25T17:36:05.450Z,62.50
2023-02-25T17:38:36.600Z,60.98
2023-02-25T17:41:09.817Z,59.97
2023-02-25T17:43:40.192Z,59.11
2023-02-25T17:46:45.244Z,60.02
2023-02-25T17:49:29.002Z,62.40
2023-02-25T17:52:06.900Z,63.15
2023-02-25T17:54:38.800Z,62.10
2023-02-25T17:57:14.556Z,60.62
2023-02-25T17:59:49.044Z,59.34
2023-02-25T18:02:32.978Z,59.00
2023-02-25T18:05:09.707Z,60.39
2023-02-25T18:07:42.983Z,62.18
2023-02-25T18:10:23.116Z,63.00
2023-02-25T18:12:52.202Z,61.92
2023-02-25T18:15:24.931Z,59.65
2023-02-25T18:17:59.674Z,59.73
2023-02-25T18:20:43.676Z,61.04
2023-02-25T18:23:15.729Z,62.77
2023-02-25T18:25:49.407Z,63.19
2023-02-25T18:28:24.484Z,61.62
2023-02-25T18:30:53.231Z,60.23
2023-02-25T18:33:21.793Z,58.13
2023-02-25T18:35:50.390Z,59.07
2023-02-25T18:38:23.877Z,60.53
2023-02-25T18:40:55.806Z,62.38
2023-02-25T18:43:34.834Z,62.92
2023-02-25T18:46:03.744Z,61.85
2023-02-25T18:48:32.782Z,60.42
2023-02-25T18:51:02.694Z,59.54
2023-02-25T18:53:33.960Z,58.87
2023-02-25T18:56:04.118Z,59.61
2023-02-25T18:58:34.001Z,61.36
2023-02-25T19:01:03.469Z,62.31
2023-02-25T19:03:39.601Z,64.15
2023-02-25T19:06:09.689Z,63.60
2023-02-25T19:08:38.395Z,61.99
2023-02-25T19:11:07.753Z,59.94
2023-02-25T19:13:42.217Z,59.01
2023-02-25T19:16:11.212Z,60.40
2023-02-25T19:18:41.801Z,62.18
2023-02-25T19:21:16.707Z,63.53
2023-02-25T19:23:46.574Z,62.47
2023-02-25T19:26:17.446Z,61.32
2023-02-25T19:28:46.398Z,60.47
2023-02-25T19:31:15.288Z,59.33
2023-02-25T19:33:43.859Z,59.17
2023-02-25T19:36:12.848Z,60.92
2023-02-25T19:38:42.485Z,62.79
2023-02-25T19:41:14.704Z,63.60
2023-02-25T19:43:43.882Z,62.48
2023-02-25T19:46:12.771Z,61.18
2023-02-25T19:48:44.663Z,60.31
2023-02-25T19:51:14.498Z,59.41
2023-02-25T19:53:43.005Z,59.40
2023-02-25T19:56:13.164Z,61.45
2023-02-25T19:58:41.678Z,63.22
2023-02-25T20:01:10.839Z,62.75
2023-02-25T20:03:39.728Z,61.45
2023-02-25T20:06:13.392Z,60.15
2023-02-25T20:08:42.934Z,59.32
2023-02-25T20:11:13.162Z,60.31
2023-02-25T20:13:41.839Z,62.37
2023-02-25T20:16:11.529Z,63.21
2023-02-25T20:18:42.892Z,62.31
2023-02-25T20:21:11.742Z,60.77
2023-02-25T20:23:41.222Z,59.49
2023-02-25T20:26:14.961Z,59.44
2023-02-25T20:28:43.708Z,61.41
2023-02-25T20:31:15.841Z,63.57
2023-02-25T20:33:45.100Z,63.41
2023-02-25T20:36:27.142Z,62.22
2023-02-25T20:39:07.657Z,60.97
2023-02-25T20:41:36.403Z,59.79
2023-02-25T20:44:05.784Z,58.79
2023-02-25T20:46:50.619Z,59.79
2023-02-25T20:49:22.441Z,62.17
2023-02-25T20:51:52.548Z,63.58
2023-02-25T20:54:21.524Z,62.64
2023-02-25T20:56:51.769Z,61.30
2023-02-25T20:59:20.266Z,60.38
2023-02-25T21:01:49.010Z,59.59
2023-02-25T21:04:17.826Z,59.40
2023-02-25T21:06:46.358Z,61.44
2023-02-25T21:09:16.633Z,63.45
2023-02-25T21:11:45.314Z,63.19
2023-02-25T21:14:14.113Z,62.07
2023-02-25T21:16:42.905Z,61.35
2023-02-25T21:19:11.918Z,60.69
2023-02-25T21:21:40.575Z,59.49
2023-02-25T21:24:15.169Z,58.95
2023-02-25T21:26:48.251Z,60.26
2023-02-25T21:29:18.135Z,62.83
2023-02-25T21:31:46.908Z,63.86
2023-02-25T21:34:15.472Z,63.07
2023-02-25T21:36:44.838Z,62.17
2023-02-25T21:39:13.380Z,61.13
2023-02-25T21:41:44.369Z,60.72
2023-02-25T21:44:13.893Z,60.13
2023-02-25T21:46:43.506Z,59.03
2023-02-25T21:49:12.003Z,59.56
2023-02-25T21:51:40.641Z,61.53
2023-02-25T21:54:09.975Z,63.74
2023-02-25T21:56:40.874Z,63.28
2023-02-25T21:59:09.717Z,62.10
2023-02-25T22:01:42.425Z,60.95
2023-02-25T22:04:12.354Z,59.67
2023-02-25T22:06:44.815Z,58.84
2023-02-25T22:09:14.174Z,59.43
2023-02-25T22:11:42.752Z,61.34
2023-02-25T22:14:12.131Z,63.73
2023-02-25T22:16:42.607Z,63.72
2023-02-25T22:19:11.170Z,62.75
2023-02-25T22:21:39.701Z,61.74
2023-02-25T22:24:10.016Z,60.73
2023-02-25T22:26:38.764Z,59.91
2023-02-25T22:29:10.652Z,59.58
2023-02-25T22:31:39.408Z,58.58
2023-02-25T22:34:08.538Z,59.60
2023-02-25T22:36:37.874Z,61.59
2023-02-25T22:39:08.006Z,63.35
2023-02-25T22:41:39.645Z,63.99
2023-02-25T22:44:08.268Z,63.13
2023-02-25T22:46:39.027Z,62.00
2023-02-25T22:49:11.577Z,61.03
2023-02-25T22:51:43.666Z,60.36
2023-02-25T22:54:17.604Z,59.59
2023-02-25T22:56:50.017Z,58.94
2023-02-25T22:59:19.577Z,61.01
2023-02-25T23:01:50.666Z,63.17
2023-02-25T23:04:20.794Z,63.20
2023-02-25T23:06:52.947Z,62.22
2023-02-25T23:09:23.372Z,61.16
2023-02-25T23:11:55.181Z,60.22
2023-02-25T23:14:28.354Z,59.82
2023-02-25T23:16:58.270Z,58.78
2023-02-25T23:19:29.101Z,60.01
2023-02-25T23:21:58.872Z,62.24
2023-02-25T23:24:28.043Z,63.90
2023-02-25T23:27:01.897Z,62.99
2023-02-25T23:29:31.321Z,61.85
2023-02-25T23:32:00.342Z,60.93
2023-02-25T23:34:32.622Z,59.68
2023-02-25T23:37:04.117Z,59.26
2023-02-25T23:39:35.476Z,59.18
2023-02-25T23:42:06.213Z,61.31
2023-02-25T23:44:36.512Z,62.89
2023-02-25T23:47:06.917Z,63.58
2023-02-25T23:49:36.191Z,62.67
2023-02-25T23:52:05.548Z,61.31
2023-02-25T23:54:36.147Z,59.98
2023-02-25T23:57:07.975Z,59.33
2023-02-25T23:59:39.182Z,59.83
